sensor_id;sensor_type;location;lat;lon;timestamp;temperature;humidity
4245;DHT22;2136;48.502;9.194;2023-06-14T00:02:02;18.10;47.60
4245;DHT22;2136;48.502;9.194;2023-06-14T00:04:30;18.00;47.80
4245;DHT22;2136;48.502;9.194;2023-06-14T00:06:56;17.90;47.80
4245;DHT22;2136;48.502;9.194;2023-06-14T00:09:23;17.90;47.90
4245;DHT22;2136;48.502;9.194;2023-06-14T00:11:50;17.80;48.20
4245;DHT22;2136;48.502;9.194;2023-06-14T00:14:17;17.80;48.10
4245;DHT22;2136;48.502;9.194;2023-06-14T00:16:45;17.70;48.20
4245;DHT22;2136;48.502;9.194;2023-06-14T00:19:13;17.60;48.50
4245;DHT22;2136;48.502;9.194;2023-06-14T00:21:41;17.60;48.50
4245;DHT22;2136;48.502;9.194;2023-06-14T00:24:08;17.50;48.70
4245;DHT22;2136;48.502;9.194;2023-06-14T00:26:35;17.40;49.00
4245;DHT22;2136;48.502;9.194;2023-06-14T00:29:02;17.40;49.30
4245;DHT22;2136;48.502;9.194;2023-06-14T00:31:29;17.30;49.40
4245;DHT22;2136;48.502;9.194;2023-06-14T00:33:57;17.30;49.80
4245;DHT22;2136;48.502;9.194;2023-06-14T00:36:24;17.20;49.90
4245;DHT22;2136;48.502;9.194;2023-06-14T00:38:51;17.20;50.20
4245;DHT22;2136;48.502;9.194;2023-06-14T00:41:18;17.10;50.00
4245;DHT22;2136;48.502;9.194;2023-06-14T00:43:45;17.10;50.80
4245;DHT22;2136;48.502;9.194;2023-06-14T00:46:12;17.10;50.40
4245;DHT22;2136;48.502;9.194;2023-06-14T00:48:39;17.00;50.50
4245;DHT22;2136;48.502;9.194;2023-06-14T00:51:07;16.90;50.70
4245;DHT22;2136;48.502;9.194;2023-06-14T00:53:34;17.00;50.80
4245;DHT22;2136;48.502;9.194;2023-06-14T00:56:02;16.80;50.90
4245;DHT22;2136;48.502;9.194;2023-06-14T00:58:29;16.80;51.40
4245;DHT22;2136;48.502;9.194;2023-06-14T01:00:57;16.80;51.50
4245;DHT22;2136;48.502;9.194;2023-06-14T01:03:24;16.70;50.90
4245;DHT22;2136;48.502;9.194;2023-06-14T01:05:59;16.70;50.70
4245;DHT22;2136;48.502;9.194;2023-06-14T01:08:40;16.70;51.40
4245;DHT22;2136;48.502;9.194;2023-06-14T01:11:14;16.60;51.50
4245;DHT22;2136;48.502;9.194;2023-06-14T01:13:45;16.60;51.30
4245;DHT22;2136;48.502;9.194;2023-06-14T01:16:13;16.50;51.30
4245;DHT22;2136;48.502;9.194;2023-06-14T01:18:40;16.50;51.10
4245;DHT22;2136;48.502;9.194;2023-06-14T01:21:20;16.50;51.40
4245;DHT22;2136;48.502;9.194;2023-06-14T01:23:49;16.40;51.50
4245;DHT22;2136;48.502;9.194;2023-06-14T01:26:19;16.40;51.20
4245;DHT22;2136;48.502;9.194;2023-06-14T01:28:46;16.30;51.60
4245;DHT22;2136;48.502;9.194;2023-06-14T01:31:20;16.30;51.70
4245;DHT22;2136;48.502;9.194;2023-06-14T01:33:48;16.20;52.00
4245;DHT22;2136;48.502;9.194;2023-06-14T01:36:17;16.30;52.20
4245;DHT22;2136;48.502;9.194;2023-06-14T01:38:46;16.10;52.20
4245;DHT22;2136;48.502;9.194;2023-06-14T01:41:16;16.20;52.30
4245;DHT22;2136;48.502;9.194;2023-06-14T01:43:43;16.10;52.30
4245;DHT22;2136;48.502;9.194;2023-06-14T01:46:11;16.10;53.10
4245;DHT22;2136;48.502;9.194;2023-06-14T01:48:38;16.00;52.80
4245;DHT22;2136;48.502;9.194;2023-06-14T01:51:05;16.10;52.60
4245;DHT22;2136;48.502;9.194;2023-06-14T01:53:32;16.00;52.20
4245;DHT22;2136;48.502;9.194;2023-06-14T01:55:58;16.00;52.00
4245;DHT22;2136;48.502;9.194;2023-06-14T01:58:28;16.00;51.80
4245;DHT22;2136;48.502;9.194;2023-06-14T02:00:55;16.00;51.70
4245;DHT22;2136;48.502;9.194;2023-06-14T02:03:22;15.90;51.60
4245;DHT22;2136;48.502;9.194;2023-06-14T02:05:50;15.90;51.80
4245;DHT22;2136;48.502;9.194;2023-06-14T02:08:17;15.90;52.00
4245;DHT22;2136;48.502;9.194;2023-06-14T02:10:44;15.90;52.20
4245;DHT22;2136;48.502;9.194;2023-06-14T02:13:10;15.90;52.60
4245;DHT22;2136;48.502;9.194;2023-06-14T02:15:39;15.80;52.80
4245;DHT22;2136;48.502;9.194;2023-06-14T02:18:09;15.70;53.00
4245;DHT22;2136;48.502;9.194;2023-06-14T02:20:36;15.70;53.10
4245;DHT22;2136;48.502;9.194;2023-06-14T02:23:03;15.70;52.90
4245;DHT22;2136;48.502;9.194;2023-06-14T02:25:30;15.60;52.80
4245;DHT22;2136;48.502;9.194;2023-06-14T02:27:57;15.60;52.70
4245;DHT22;2136;48.502;9.194;2023-06-14T02:30:24;15.60;52.70
4245;DHT22;2136;48.502;9.194;2023-06-14T02:32:52;15.50;53.10
4245;DHT22;2136;48.502;9.194;2023-06-14T02:35:19;15.50;53.60
4245;DHT22;2136;48.502;9.194;2023-06-14T02:37:47;15.40;53.90
4245;DHT22;2136;48.502;9.194;2023-06-14T02:40:14;15.40;54.40
4245;DHT22;2136;48.502;9.194;2023-06-14T02:42:41;15.40;54.60
4245;DHT22;2136;48.502;9.194;2023-06-14T02:45:08;15.30;55.20
4245;DHT22;2136;48.502;9.194;2023-06-14T02:47:35;15.30;54.70
4245;DHT22;2136;48.502;9.194;2023-06-14T02:50:05;15.30;54.40
4245;DHT22;2136;48.502;9.194;2023-06-14T02:52:32;15.30;54.60
4245;DHT22;2136;48.502;9.194;2023-06-14T02:54:59;15.30;54.90
4245;DHT22;2136;48.502;9.194;2023-06-14T02:57:26;15.20;54.80
4245;DHT22;2136;48.502;9.194;2023-06-14T02:59:53;15.30;55.30
4245;DHT22;2136;48.502;9.194;2023-06-14T03:02:20;15.20;55.50
4245;DHT22;2136;48.502;9.194;2023-06-14T03:04:47;15.30;56.00
4245;DHT22;2136;48.502;9.194;2023-06-14T03:07:15;15.20;55.70
4245;DHT22;2136;48.502;9.194;2023-06-14T03:09:45;15.10;55.80
4245;DHT22;2136;48.502;9.194;2023-06-14T03:12:12;15.20;56.20
4245;DHT22;2136;48.502;9.194;2023-06-14T03:14:39;15.10;56.30
4245;DHT22;2136;48.502;9.194;2023-06-14T03:17:05;15.10;55.90
4245;DHT22;2136;48.502;9.194;2023-06-14T03:19:33;15.00;55.80
4245;DHT22;2136;48.502;9.194;2023-06-14T03:22:00;15.00;55.60
4245;DHT22;2136;48.502;9.194;2023-06-14T03:24:29;15.00;55.70
4245;DHT22;2136;48.502;9.194;2023-06-14T03:27:02;15.00;55.90
4245;DHT22;2136;48.502;9.194;2023-06-14T03:29:28;14.90;56.10
4245;DHT22;2136;48.502;9.194;2023-06-14T03:31:59;15.10;56.00
4245;DHT22;2136;48.502;9.194;2023-06-14T03:34:26;14.90;55.90
4245;DHT22;2136;48.502;9.194;2023-06-14T03:36:53;14.90;55.60
4245;DHT22;2136;48.502;9.194;2023-06-14T03:39:20;14.80;55.30
4245;DHT22;2136;48.502;9.194;2023-06-14T03:41:48;14.80;55.20
4245;DHT22;2136;48.502;9.194;2023-06-14T03:44:16;14.80;55.20
4245;DHT22;2136;48.502;9.194;2023-06-14T03:46:44;14.80;55.30
4245;DHT22;2136;48.502;9.194;2023-06-14T03:49:11;14.80;55.30
4245;DHT22;2136;48.502;9.194;2023-06-14T03:51:38;14.80;55.20
4245;DHT22;2136;48.502;9.194;2023-06-14T03:54:05;14.80;55.00
4245;DHT22;2136;48.502;9.194;2023-06-14T03:56:32;14.70;54.90
4245;DHT22;2136;48.502;9.194;2023-06-14T03:59:00;14.70;54.80
4245;DHT22;2136;48.502;9.194;2023-06-14T04:01:27;14.70;54.80
4245;DHT22;2136;48.502;9.194;2023-06-14T04:03:55;14.80;55.00
4245;DHT22;2136;48.502;9.194;2023-06-14T04:06:23;14.70;55.30
4245;DHT22;2136;48.502;9.194;2023-06-14T04:08:57;14.60;55.00
4245;DHT22;2136;48.502;9.194;2023-06-14T04:11:26;14.70;55.40
4245;DHT22;2136;48.502;9.194;2023-06-14T04:13:53;14.60;55.30
4245;DHT22;2136;48.502;9.194;2023-06-14T04:16:23;14.80;55.50
4245;DHT22;2136;48.502;9.194;2023-06-14T04:18:50;14.70;55.80
4245;DHT22;2136;48.502;9.194;2023-06-14T04:21:17;14.60;55.70
4245;DHT22;2136;48.502;9.194;2023-06-14T04:23:44;14.70;55.80
4245;DHT22;2136;48.502;9.194;2023-06-14T04:26:11;14.70;56.40
4245;DHT22;2136;48.502;9.194;2023-06-14T04:28:38;14.70;55.90
4245;DHT22;2136;48.502;9.194;2023-06-14T04:31:06;14.70;55.90
4245;DHT22;2136;48.502;9.194;2023-06-14T04:33:35;14.80;56.00
4245;DHT22;2136;48.502;9.194;2023-06-14T04:36:08;14.70;56.10
4245;DHT22;2136;48.502;9.194;2023-06-14T04:38:35;14.70;56.50
4245;DHT22;2136;48.502;9.194;2023-06-14T04:41:02;14.80;56.60
4245;DHT22;2136;48.502;9.194;2023-06-14T04:43:29;14.70;56.40
4245;DHT22;2136;48.502;9.194;2023-06-14T04:45:57;14.80;56.30
4245;DHT22;2136;48.502;9.194;2023-06-14T04:48:24;14.80;56.50
4245;DHT22;2136;48.502;9.194;2023-06-14T04:50:52;14.80;55.80
4245;DHT22;2136;48.502;9.194;2023-06-14T04:53:20;14.90;55.70
4245;DHT22;2136;48.502;9.194;2023-06-14T04:55:48;14.90;55.50
4245;DHT22;2136;48.502;9.194;2023-06-14T04:58:16;14.90;55.20
4245;DHT22;2136;48.502;9.194;2023-06-14T05:00:43;15.10;55.20
4245;DHT22;2136;48.502;9.194;2023-06-14T05:03:10;15.00;55.10
4245;DHT22;2136;48.502;9.194;2023-06-14T05:05:39;15.10;55.10
4245;DHT22;2136;48.502;9.194;2023-06-14T05:08:08;15.10;55.10
4245;DHT22;2136;48.502;9.194;2023-06-14T05:10:35;15.10;55.00
4245;DHT22;2136;48.502;9.194;2023-06-14T05:13:02;15.20;55.10
4245;DHT22;2136;48.502;9.194;2023-06-14T05:15:29;15.20;55.30
4245;DHT22;2136;48.502;9.194;2023-06-14T05:17:56;15.30;55.40
4245;DHT22;2136;48.502;9.194;2023-06-14T05:20:23;15.30;55.40
4245;DHT22;2136;48.502;9.194;2023-06-14T05:22:52;15.40;55.70
4245;DHT22;2136;48.502;9.194;2023-06-14T05:25:20;15.40;55.90
4245;DHT22;2136;48.502;9.194;2023-06-14T05:27:47;15.40;55.60
4245;DHT22;2136;48.502;9.194;2023-06-14T05:30:15;15.50;55.30
4245;DHT22;2136;48.502;9.194;2023-06-14T05:32:42;15.60;55.40
4245;DHT22;2136;48.502;9.194;2023-06-14T05:35:09;15.60;55.90
4245;DHT22;2136;48.502;9.194;2023-06-14T05:37:36;15.70;55.60
4245;DHT22;2136;48.502;9.194;2023-06-14T05:40:03;15.70;55.40
4245;DHT22;2136;48.502;9.194;2023-06-14T05:42:33;15.80;55.20
4245;DHT22;2136;48.502;9.194;2023-06-14T05:45:00;15.90;54.90
4245;DHT22;2136;48.502;9.194;2023-06-14T05:47:27;15.90;54.80
4245;DHT22;2136;48.502;9.194;2023-06-14T05:49:54;15.90;54.60
4245;DHT22;2136;48.502;9.194;2023-06-14T05:52:21;16.00;54.10
4245;DHT22;2136;48.502;9.194;2023-06-14T05:54:48;16.10;53.70
4245;DHT22;2136;48.502;9.194;2023-06-14T05:57:15;16.10;53.50
4245;DHT22;2136;48.502;9.194;2023-06-14T05:59:43;16.20;53.30
4245;DHT22;2136;48.502;9.194;2023-06-14T06:02:10;16.30;53.30
4245;DHT22;2136;48.502;9.194;2023-06-14T06:04:37;16.30;53.20
4245;DHT22;2136;48.502;9.194;2023-06-14T06:07:04;16.30;52.80
4245;DHT22;2136;48.502;9.194;2023-06-14T06:09:31;16.40;52.90
4245;DHT22;2136;48.502;9.194;2023-06-14T06:11:58;16.50;52.50
4245;DHT22;2136;48.502;9.194;2023-06-14T06:14:25;16.50;52.20
4245;DHT22;2136;48.502;9.194;2023-06-14T06:16:53;16.60;52.10
4245;DHT22;2136;48.502;9.194;2023-06-14T06:19:20;16.60;51.90
4245;DHT22;2136;48.502;9.194;2023-06-14T06:21:47;16.70;51.80
4245;DHT22;2136;48.502;9.194;2023-06-14T06:24:14;16.80;51.50
4245;DHT22;2136;48.502;9.194;2023-06-14T06:26:41;16.80;50.80
4245;DHT22;2136;48.502;9.194;2023-06-14T06:29:08;16.90;50.70
4245;DHT22;2136;48.502;9.194;2023-06-14T06:31:35;17.00;50.90
4245;DHT22;2136;48.502;9.194;2023-06-14T06:34:03;17.00;51.00
4245;DHT22;2136;48.502;9.194;2023-06-14T06:36:30;17.10;51.00
4245;DHT22;2136;48.502;9.194;2023-06-14T06:38:57;17.20;51.30
4245;DHT22;2136;48.502;9.194;2023-06-14T06:41:24;17.30;50.80
4245;DHT22;2136;48.502;9.194;2023-06-14T06:43:51;17.30;50.40
4245;DHT22;2136;48.502;9.194;2023-06-14T06:46:18;17.40;50.70
4245;DHT22;2136;48.502;9.194;2023-06-14T06:48:45;17.50;51.20
4245;DHT22;2136;48.502;9.194;2023-06-14T06:51:13;17.60;51.40
4245;DHT22;2136;48.502;9.194;2023-06-14T06:53:42;17.70;51.20
4245;DHT22;2136;48.502;9.194;2023-06-14T06:56:09;17.80;51.80
4245;DHT22;2136;48.502;9.194;2023-06-14T06:58:36;17.90;51.40
4245;DHT22;2136;48.502;9.194;2023-06-14T07:01:03;18.00;51.00
4245;DHT22;2136;48.502;9.194;2023-06-14T07:03:30;18.10;49.00
4245;DHT22;2136;48.502;9.194;2023-06-14T07:05:57;18.30;49.00
4245;DHT22;2136;48.502;9.194;2023-06-14T07:08:25;18.50;48.60
4245;DHT22;2136;48.502;9.194;2023-06-14T07:10:52;18.50;48.30
4245;DHT22;2136;48.502;9.194;2023-06-14T07:13:19;18.70;48.50
4245;DHT22;2136;48.502;9.194;2023-06-14T07:15:46;18.80;48.50
4245;DHT22;2136;48.502;9.194;2023-06-14T07:18:13;18.80;48.50
4245;DHT22;2136;48.502;9.194;2023-06-14T07:20:41;18.90;48.50
4245;DHT22;2136;48.502;9.194;2023-06-14T07:23:08;19.00;48.40
4245;DHT22;2136;48.502;9.194;2023-06-14T07:25:37;19.00;48.10
4245;DHT22;2136;48.502;9.194;2023-06-14T07:28:04;19.10;48.10
4245;DHT22;2136;48.502;9.194;2023-06-14T07:30:32;19.20;48.20
4245;DHT22;2136;48.502;9.194;2023-06-14T07:32:59;19.30;48.00
4245;DHT22;2136;48.502;9.194;2023-06-14T07:35:26;19.30;48.60
4245;DHT22;2136;48.502;9.194;2023-06-14T07:37:53;19.40;48.10
4245;DHT22;2136;48.502;9.194;2023-06-14T07:40:20;19.40;47.60
4245;DHT22;2136;48.502;9.194;2023-06-14T07:42:48;19.50;47.50
4245;DHT22;2136;48.502;9.194;2023-06-14T07:45:16;19.50;47.10
4245;DHT22;2136;48.502;9.194;2023-06-14T07:47:43;19.50;46.30
4245;DHT22;2136;48.502;9.194;2023-06-14T07:50:10;19.70;45.90
4245;DHT22;2136;48.502;9.194;2023-06-14T07:52:37;19.70;46.20
4245;DHT22;2136;48.502;9.194;2023-06-14T07:55:04;19.80;47.00
4245;DHT22;2136;48.502;9.194;2023-06-14T07:57:32;19.90;47.90
4245;DHT22;2136;48.502;9.194;2023-06-14T08:00:00;20.00;47.80
4245;DHT22;2136;48.502;9.194;2023-06-14T08:02:27;20.00;47.60
4245;DHT22;2136;48.502;9.194;2023-06-14T08:04:53;20.10;47.10
4245;DHT22;2136;48.502;9.194;2023-06-14T08:07:20;20.20;47.50
4245;DHT22;2136;48.502;9.194;2023-06-14T08:09:47;20.30;47.60
4245;DHT22;2136;48.502;9.194;2023-06-14T08:12:14;20.40;48.10
4245;DHT22;2136;48.502;9.194;2023-06-14T08:14:42;20.50;47.70
4245;DHT22;2136;48.502;9.194;2023-06-14T08:17:10;20.60;47.50
4245;DHT22;2136;48.502;9.194;2023-06-14T08:19:37;20.70;47.10
4245;DHT22;2136;48.502;9.194;2023-06-14T08:22:04;20.80;47.40
4245;DHT22;2136;48.502;9.194;2023-06-14T08:24:31;20.80;47.20
4245;DHT22;2136;48.502;9.194;2023-06-14T08:26:58;20.90;46.70
4245;DHT22;2136;48.502;9.194;2023-06-14T08:29:26;21.00;46.50
4245;DHT22;2136;48.502;9.194;2023-06-14T08:31:54;21.10;46.50
4245;DHT22;2136;48.502;9.194;2023-06-14T08:34:23;21.20;46.10
4245;DHT22;2136;48.502;9.194;2023-06-14T08:36:50;21.30;45.60
4245;DHT22;2136;48.502;9.194;2023-06-14T08:39:17;21.50;45.20
4245;DHT22;2136;48.502;9.194;2023-06-14T08:41:46;21.60;45.10
4245;DHT22;2136;48.502;9.194;2023-06-14T08:44:13;21.80;45.40
4245;DHT22;2136;48.502;9.194;2023-06-14T08:46:41;21.90;45.00
4245;DHT22;2136;48.502;9.194;2023-06-14T08:49:11;22.10;44.70
4245;DHT22;2136;48.502;9.194;2023-06-14T08:51:40;22.20;43.60
4245;DHT22;2136;48.502;9.194;2023-06-14T08:54:07;22.40;43.70
4245;DHT22;2136;48.502;9.194;2023-06-14T08:56:34;22.50;43.70
4245;DHT22;2136;48.502;9.194;2023-06-14T08:59:04;22.70;43.30
4245;DHT22;2136;48.502;9.194;2023-06-14T09:01:34;22.80;42.90
4245;DHT22;2136;48.502;9.194;2023-06-14T09:04:01;22.90;41.60
4245;DHT22;2136;48.502;9.194;2023-06-14T09:06:30;23.10;41.40
4245;DHT22;2136;48.502;9.194;2023-06-14T09:08:59;23.30;41.80
4245;DHT22;2136;48.502;9.194;2023-06-14T09:11:30;23.50;41.80
4245;DHT22;2136;48.502;9.194;2023-06-14T09:13:57;23.70;41.40
4245;DHT22;2136;48.502;9.194;2023-06-14T09:16:25;23.80;40.40
4245;DHT22;2136;48.502;9.194;2023-06-14T09:18:54;24.00;40.70
4245;DHT22;2136;48.502;9.194;2023-06-14T09:21:20;24.20;41.10
4245;DHT22;2136;48.502;9.194;2023-06-14T09:23:48;24.50;40.90
4245;DHT22;2136;48.502;9.194;2023-06-14T09:26:17;24.70;40.10
4245;DHT22;2136;48.502;9.194;2023-06-14T09:28:46;24.80;39.60
4245;DHT22;2136;48.502;9.194;2023-06-14T09:31:14;24.90;39.40
4245;DHT22;2136;48.502;9.194;2023-06-14T09:33:42;25.00;39.90
4245;DHT22;2136;48.502;9.194;2023-06-14T09:36:15;25.20;40.10
4245;DHT22;2136;48.502;9.194;2023-06-14T09:38:44;25.40;39.70
4245;DHT22;2136;48.502;9.194;2023-06-14T09:41:19;25.50;39.40
4245;DHT22;2136;48.502;9.194;2023-06-14T09:43:47;25.70;38.50
4245;DHT22;2136;48.502;9.194;2023-06-14T09:46:15;25.80;38.40
4245;DHT22;2136;48.502;9.194;2023-06-14T09:48:42;26.00;38.90
4245;DHT22;2136;48.502;9.194;2023-06-14T09:51:10;26.10;38.90
4245;DHT22;2136;48.502;9.194;2023-06-14T09:53:37;26.40;38.20
4245;DHT22;2136;48.502;9.194;2023-06-14T09:56:05;26.60;37.90
4245;DHT22;2136;48.502;9.194;2023-06-14T09:58:36;26.80;37.40
4245;DHT22;2136;48.502;9.194;2023-06-14T10:01:08;27.00;37.00
4245;DHT22;2136;48.502;9.194;2023-06-14T10:03:39;27.20;36.50
4245;DHT22;2136;48.502;9.194;2023-06-14T10:06:08;27.40;34.90
4245;DHT22;2136;48.502;9.194;2023-06-14T10:08:36;27.50;34.40
4245;DHT22;2136;48.502;9.194;2023-06-14T10:11:04;27.60;34.20
4245;DHT22;2136;48.502;9.194;2023-06-14T10:13:33;27.80;34.10
4245;DHT22;2136;48.502;9.194;2023-06-14T10:16:07;28.20;33.50
4245;DHT22;2136;48.502;9.194;2023-06-14T10:18:42;28.70;32.40
4245;DHT22;2136;48.502;9.194;2023-06-14T10:21:16;29.70;31.80
4245;DHT22;2136;48.502;9.194;2023-06-14T10:23:44;30.60;30.30
4245;DHT22;2136;48.502;9.194;2023-06-14T10:26:19;32.00;29.90
4245;DHT22;2136;48.502;9.194;2023-06-14T10:29:00;33.80;29.20
4245;DHT22;2136;48.502;9.194;2023-06-14T10:31:40;35.70;28.20
4245;DHT22;2136;48.502;9.194;2023-06-14T10:34:08;37.20;26.30
4245;DHT22;2136;48.502;9.194;2023-06-14T10:36:35;38.70;25.20
4245;DHT22;2136;48.502;9.194;2023-06-14T10:39:05;40.20;24.00
4245;DHT22;2136;48.502;9.194;2023-06-14T10:41:35;41.80;23.00
4245;DHT22;2136;48.502;9.194;2023-06-14T10:44:37;43.40;22.20
4245;DHT22;2136;48.502;9.194;2023-06-14T10:47:07;45.20;21.40
4245;DHT22;2136;48.502;9.194;2023-06-14T10:49:39;46.40;20.90
4245;DHT22;2136;48.502;9.194;2023-06-14T10:52:08;46.80;20.30
4245;DHT22;2136;48.502;9.194;2023-06-14T10:55:00;47.70;20.00
4245;DHT22;2136;48.502;9.194;2023-06-14T10:57:29;48.70;19.60
4245;DHT22;2136;48.502;9.194;2023-06-14T10:59:59;49.90;19.30
4245;DHT22;2136;48.502;9.194;2023-06-14T11:05:28;50.40;18.60
4245;DHT22;2136;48.502;9.194;2023-06-14T11:08:18;48.50;18.40
4245;DHT22;2136;48.502;9.194;2023-06-14T11:10:50;47.70;19.10
4245;DHT22;2136;48.502;9.194;2023-06-14T11:13:17;48.30;19.30
4245;DHT22;2136;48.502;9.194;2023-06-14T11:15:47;47.30;18.90
4245;DHT22;2136;48.502;9.194;2023-06-14T11:18:15;47.30;19.50
4245;DHT22;2136;48.502;9.194;2023-06-14T11:20:42;48.40;19.40
4245;DHT22;2136;48.502;9.194;2023-06-14T11:23:12;47.50;18.60
4245;DHT22;2136;48.502;9.194;2023-06-14T11:25:39;45.60;18.60
4245;DHT22;2136;48.502;9.194;2023-06-14T11:28:06;45.50;19.40
4245;DHT22;2136;48.502;9.194;2023-06-14T11:30:34;46.60;19.60
4245;DHT22;2136;48.502;9.194;2023-06-14T11:33:02;48.00;19.10
4245;DHT22;2136;48.502;9.194;2023-06-14T11:35:29;49.40;18.60
4245;DHT22;2136;48.502;9.194;2023-06-14T11:37:56;50.50;18.00
4245;DHT22;2136;48.502;9.194;2023-06-14T11:40:24;51.10;18.00
4245;DHT22;2136;48.502;9.194;2023-06-14T11:42:58;51.90;17.60
4245;DHT22;2136;48.502;9.194;2023-06-14T11:45:26;52.80;17.60
4245;DHT22;2136;48.502;9.194;2023-06-14T11:47:55;53.50;17.40
4245;DHT22;2136;48.502;9.194;2023-06-14T11:50:25;54.00;17.40
4245;DHT22;2136;48.502;9.194;2023-06-14T11:52:55;52.90;16.60
4245;DHT22;2136;48.502;9.194;2023-06-14T11:55:22;50.20;16.20
4245;DHT22;2136;48.502;9.194;2023-06-14T11:57:49;47.50;17.30
4245;DHT22;2136;48.502;9.194;2023-06-14T12:00:17;46.70;18.10
4245;DHT22;2136;48.502;9.194;2023-06-14T12:02:52;47.60;18.50
4245;DHT22;2136;48.502;9.194;2023-06-14T12:05:21;48.80;18.40
4245;DHT22;2136;48.502;9.194;2023-06-14T12:07:50;49.60;18.30
4245;DHT22;2136;48.502;9.194;2023-06-14T12:10:19;50.20;18.10
4245;DHT22;2136;48.502;9.194;2023-06-14T12:12:45;50.60;18.10
4245;DHT22;2136;48.502;9.194;2023-06-14T12:15:12;51.10;17.70
4245;DHT22;2136;48.502;9.194;2023-06-14T12:17:39;51.40;17.80
4245;DHT22;2136;48.502;9.194;2023-06-14T12:20:10;51.80;17.80
4245;DHT22;2136;48.502;9.194;2023-06-14T12:22:46;52.30;17.20
4245;DHT22;2136;48.502;9.194;2023-06-14T12:25:23;52.70;17.50
4245;DHT22;2136;48.502;9.194;2023-06-14T12:27:52;52.80;17.50
4245;DHT22;2136;48.502;9.194;2023-06-14T12:30:19;52.80;17.10
4245;DHT22;2136;48.502;9.194;2023-06-14T12:32:46;52.60;17.10
4245;DHT22;2136;48.502;9.194;2023-06-14T12:35:13;52.10;17.00
4245;DHT22;2136;48.502;9.194;2023-06-14T12:37:40;51.50;16.90
4245;DHT22;2136;48.502;9.194;2023-06-14T12:40:08;51.40;16.70
4245;DHT22;2136;48.502;9.194;2023-06-14T12:42:39;51.50;17.00
4245;DHT22;2136;48.502;9.194;2023-06-14T12:45:07;51.70;16.70
4245;DHT22;2136;48.502;9.194;2023-06-14T12:47:33;51.40;16.80
4245;DHT22;2136;48.502;9.194;2023-06-14T12:50:01;50.90;17.20
4245;DHT22;2136;48.502;9.194;2023-06-14T12:52:28;50.30;17.60
4245;DHT22;2136;48.502;9.194;2023-06-14T12:54:55;49.30;17.30
4245;DHT22;2136;48.502;9.194;2023-06-14T12:57:23;47.70;17.10
4245;DHT22;2136;48.502;9.194;2023-06-14T12:59:51;45.70;17.20
4245;DHT22;2136;48.502;9.194;2023-06-14T13:02:20;43.80;18.10
4245;DHT22;2136;48.502;9.194;2023-06-14T13:04:48;42.20;18.40
4245;DHT22;2136;48.502;9.194;2023-06-14T13:07:14;40.80;18.90
4245;DHT22;2136;48.502;9.194;2023-06-14T13:09:42;39.80;19.40
4245;DHT22;2136;48.502;9.194;2023-06-14T13:12:10;38.90;20.00
4245;DHT22;2136;48.502;9.194;2023-06-14T13:14:38;38.10;20.70
4245;DHT22;2136;48.502;9.194;2023-06-14T13:17:08;37.20;21.10
4245;DHT22;2136;48.502;9.194;2023-06-14T13:19:35;36.30;21.40
4245;DHT22;2136;48.502;9.194;2023-06-14T13:22:02;35.50;21.40
4245;DHT22;2136;48.502;9.194;2023-06-14T13:24:30;34.70;22.10
4245;DHT22;2136;48.502;9.194;2023-06-14T13:26:57;34.00;24.10
4245;DHT22;2136;48.502;9.194;2023-06-14T13:29:24;33.40;24.20
4245;DHT22;2136;48.502;9.194;2023-06-14T13:31:51;33.00;25.00
4245;DHT22;2136;48.502;9.194;2023-06-14T13:34:20;32.80;26.10
4245;DHT22;2136;48.502;9.194;2023-06-14T13:36:46;32.80;26.30
4245;DHT22;2136;48.502;9.194;2023-06-14T13:39:14;32.80;26.30
4245;DHT22;2136;48.502;9.194;2023-06-14T13:41:41;33.00;26.70
4245;DHT22;2136;48.502;9.194;2023-06-14T13:44:07;33.40;26.30
4245;DHT22;2136;48.502;9.194;2023-06-14T13:46:36;33.40;26.00
4245;DHT22;2136;48.502;9.194;2023-06-14T13:49:03;33.20;25.50
4245;DHT22;2136;48.502;9.194;2023-06-14T13:51:32;33.00;25.70
4245;DHT22;2136;48.502;9.194;2023-06-14T13:54:00;32.90;25.80
4245;DHT22;2136;48.502;9.194;2023-06-14T13:56:27;32.70;26.20
4245;DHT22;2136;48.502;9.194;2023-06-14T13:58:55;32.50;26.60
4245;DHT22;2136;48.502;9.194;2023-06-14T14:01:22;32.30;26.70
4245;DHT22;2136;48.502;9.194;2023-06-14T14:03:49;32.20;26.50
4245;DHT22;2136;48.502;9.194;2023-06-14T14:06:16;32.00;26.20
4245;DHT22;2136;48.502;9.194;2023-06-14T14:08:44;31.80;26.60
4245;DHT22;2136;48.502;9.194;2023-06-14T14:11:11;31.80;27.00
4245;DHT22;2136;48.502;9.194;2023-06-14T14:13:39;32.20;26.70
4245;DHT22;2136;48.502;9.194;2023-06-14T14:16:06;32.60;25.70
4245;DHT22;2136;48.502;9.194;2023-06-14T14:18:33;33.30;25.70
4245;DHT22;2136;48.502;9.194;2023-06-14T14:21:00;33.60;25.60
4245;DHT22;2136;48.502;9.194;2023-06-14T14:23:27;33.30;25.70
4245;DHT22;2136;48.502;9.194;2023-06-14T14:25:56;32.90;25.80
4245;DHT22;2136;48.502;9.194;2023-06-14T14:28:23;32.60;26.00
4245;DHT22;2136;48.502;9.194;2023-06-14T14:30:50;32.30;26.10
4245;DHT22;2136;48.502;9.194;2023-06-14T14:33:19;31.90;26.60
4245;DHT22;2136;48.502;9.194;2023-06-14T14:35:46;31.60;26.50
4245;DHT22;2136;48.502;9.194;2023-06-14T14:38:13;31.40;26.90
4245;DHT22;2136;48.502;9.194;2023-06-14T14:40:41;31.30;27.50
4245;DHT22;2136;48.502;9.194;2023-06-14T14:43:09;31.00;27.60
4245;DHT22;2136;48.502;9.194;2023-06-14T14:45:37;31.00;28.20
4245;DHT22;2136;48.502;9.194;2023-06-14T14:48:04;31.10;28.90
4245;DHT22;2136;48.502;9.194;2023-06-14T14:50:31;31.10;27.80
4245;DHT22;2136;48.502;9.194;2023-06-14T14:52:58;31.20;28.50
4245;DHT22;2136;48.502;9.194;2023-06-14T14:55:25;31.40;28.20
4245;DHT22;2136;48.502;9.194;2023-06-14T14:57:51;31.50;28.30
4245;DHT22;2136;48.502;9.194;2023-06-14T15:00:20;31.30;28.10
4245;DHT22;2136;48.502;9.194;2023-06-14T15:02:47;31.20;28.40
4245;DHT22;2136;48.502;9.194;2023-06-14T15:05:14;31.10;28.00
4245;DHT22;2136;48.502;9.194;2023-06-14T15:07:41;30.90;27.70
4245;DHT22;2136;48.502;9.194;2023-06-14T15:10:08;30.70;27.60
4245;DHT22;2136;48.502;9.194;2023-06-14T15:12:35;30.50;28.10
4245;DHT22;2136;48.502;9.194;2023-06-14T15:15:03;30.30;27.90
4245;DHT22;2136;48.502;9.194;2023-06-14T15:17:31;29.90;28.50
4245;DHT22;2136;48.502;9.194;2023-06-14T15:19:58;29.50;28.80
4245;DHT22;2136;48.502;9.194;2023-06-14T15:22:25;29.30;28.80
4245;DHT22;2136;48.502;9.194;2023-06-14T15:24:52;29.00;28.80
4245;DHT22;2136;48.502;9.194;2023-06-14T15:27:19;28.80;29.10
4245;DHT22;2136;48.502;9.194;2023-06-14T15:29:46;28.70;29.40
4245;DHT22;2136;48.502;9.194;2023-06-14T15:32:13;28.70;30.00
4245;DHT22;2136;48.502;9.194;2023-06-14T15:34:41;29.00;29.60
4245;DHT22;2136;48.502;9.194;2023-06-14T15:37:08;29.30;29.10
4245;DHT22;2136;48.502;9.194;2023-06-14T15:39:35;29.50;29.20
4245;DHT22;2136;48.502;9.194;2023-06-14T15:42:02;29.70;28.60
4245;DHT22;2136;48.502;9.194;2023-06-14T15:44:29;29.90;28.70
4245;DHT22;2136;48.502;9.194;2023-06-14T15:46:56;30.10;28.50
4245;DHT22;2136;48.502;9.194;2023-06-14T15:49:23;30.50;28.70
4245;DHT22;2136;48.502;9.194;2023-06-14T15:51:51;30.80;28.80
4245;DHT22;2136;48.502;9.194;2023-06-14T15:54:18;31.10;28.50
4245;DHT22;2136;48.502;9.194;2023-06-14T15:56:45;31.40;28.20
4245;DHT22;2136;48.502;9.194;2023-06-14T15:59:12;31.60;27.70
4245;DHT22;2136;48.502;9.194;2023-06-14T16:01:39;31.50;28.40
4245;DHT22;2136;48.502;9.194;2023-06-14T16:04:06;31.40;28.10
4245;DHT22;2136;48.502;9.194;2023-06-14T16:06:33;31.40;28.20
4245;DHT22;2136;48.502;9.194;2023-06-14T16:09:02;31.40;28.00
4245;DHT22;2136;48.502;9.194;2023-06-14T16:11:29;31.30;28.20